LRAR - ARAD

Compiled: 17:41:23 on 20/10/2018

Latest METAR/SPECI Reports

METAR LRAR 201730Z 30004KT 7000 FEW035 15/11 Q1021=

Previous reports

METAR LRAR 201700Z 29004KT 260V320 7000 FEW035 16/11 Q1021=
METAR LRAR 201630Z 31003KT 8000 NSC 17/10 Q1021=
METAR LRAR 201600Z 33003KT 7000 NSC 17/11 Q1021=
METAR LRAR 201530Z 34002KT 7000 NSC 18/11 Q1021=

Latest TAF report

TAF LRAR 201400Z 2015/2024 33006KT 5000 BR NSC TEMPO 2021/2024 1500 BR BKN005=

Valid WARNINGS

No valid warnings for LRAR